logo
Search for airport 
image banner adimage banner adimage banner ad
image banner ad

FAGY - Greytown

Located in Greytown, South Africa

ICAO - FAGY, IATA -

Data provided by Airmate  

General information

Coordinates: S29°7'17" E30°35'14"
Elevation is 3531 feet MSL.
Magnetic variation is -24° East
View others Airports in Kwazulu-Natal

Operational data

Special qualification required
Current time UTC:
Current local time:
Weather at : FAPM - Pietermaritzburg ( 61 km )
TAF: TAF FAPM 220600Z 2207/2218 VRB03KT CAVOK TX26/2212Z TN14/2218Z BECMG 2210/2212 10008KT
View NOTAMs / SUP AIP / TFR affecting this airport [VIEW]
Communications frequencies: [VIEW]

Runways:

RWY identifierQFULength (ft)Width (ft)SurfaceLDA (ft)
0641°478441ASPH4797
24221°478441ASPH4797

Airport contact information

Address: Greytown South Africa

Satellite view of FAGY